sensor_id;sensor_type;location;lat;lon;timestamp;pressure;altitude;pressure_sealevel;temperature;humidity
15489;BME280;7846;48.830;9.116;2022-12-10T00:01:16;96643.41;;;2.83;94.08
15489;BME280;7846;48.830;9.116;2022-12-10T00:03:42;96650.94;;;2.86;93.31
15489;BME280;7846;48.830;9.116;2022-12-10T00:06:11;96652.56;;;2.97;93.25
15489;BME280;7846;48.830;9.116;2022-12-10T00:08:37;96645.88;;;2.55;93.68
15489;BME280;7846;48.830;9.116;2022-12-10T00:11:05;96650.28;;;2.45;96.39
15489;BME280;7846;48.830;9.116;2022-12-10T00:13:33;96653.41;;;2.39;95.83
15489;BME280;7846;48.830;9.116;2022-12-10T00:15:59;96656.53;;;2.33;96.80
15489;BME280;7846;48.830;9.116;2022-12-10T00:18:27;96665.41;;;2.21;97.47
15489;BME280;7846;48.830;9.116;2022-12-10T00:20:54;96659.34;;;2.10;98.56
15489;BME280;7846;48.830;9.116;2022-12-10T00:23:21;96661.03;;;2.21;97.80
15489;BME280;7846;48.830;9.116;2022-12-10T00:25:46;96666.63;;;2.26;97.20
15489;BME280;7846;48.830;9.116;2022-12-10T00:28:12;96661.72;;;2.33;97.51
15489;BME280;7846;48.830;9.116;2022-12-10T00:30:38;96650.81;;;2.49;95.95
15489;BME280;7846;48.830;9.116;2022-12-10T00:33:04;96658.75;;;2.57;95.99
15489;BME280;7846;48.830;9.116;2022-12-10T00:35:31;96657.38;;;2.72;94.53
15489;BME280;7846;48.830;9.116;2022-12-10T00:37:57;96647.50;;;2.85;94.44
15489;BME280;7846;48.830;9.116;2022-12-10T00:40:23;96654.66;;;2.64;93.61
15489;BME280;7846;48.830;9.116;2022-12-10T00:42:48;96647.38;;;2.38;94.48
15489;BME280;7846;48.830;9.116;2022-12-10T00:45:13;96657.50;;;2.32;95.95
15489;BME280;7846;48.830;9.116;2022-12-10T00:47:39;96651.06;;;2.36;96.48
15489;BME280;7846;48.830;9.116;2022-12-10T00:50:06;96653.63;;;2.16;97.70
15489;BME280;7846;48.830;9.116;2022-12-10T00:52:31;96658.25;;;2.03;98.07
15489;BME280;7846;48.830;9.116;2022-12-10T00:54:57;96657.75;;;2.29;98.72
15489;BME280;7846;48.830;9.116;2022-12-10T00:57:23;96659.97;;;2.43;96.58
15489;BME280;7846;48.830;9.116;2022-12-10T00:59:48;96658.88;;;2.65;95.50
15489;BME280;7846;48.830;9.116;2022-12-10T01:02:15;96667.34;;;2.48;96.70
15489;BME280;7846;48.830;9.116;2022-12-10T01:04:40;96673.03;;;2.12;97.26
15489;BME280;7846;48.830;9.116;2022-12-10T01:07:07;96668.50;;;2.05;99.29
15489;BME280;7846;48.830;9.116;2022-12-10T01:09:33;96676.00;;;1.98;100.00
15489;BME280;7846;48.830;9.116;2022-12-10T01:12:01;96683.53;;;2.11;100.00
15489;BME280;7846;48.830;9.116;2022-12-10T01:14:30;96683.16;;;2.15;99.92
15489;BME280;7846;48.830;9.116;2022-12-10T01:16:58;96685.00;;;1.94;100.00
15489;BME280;7846;48.830;9.116;2022-12-10T01:19:25;96690.03;;;1.96;100.00
15489;BME280;7846;48.830;9.116;2022-12-10T01:21:54;96686.63;;;1.95;100.00
15489;BME280;7846;48.830;9.116;2022-12-10T01:24:26;96697.09;;;1.84;100.00
15489;BME280;7846;48.830;9.116;2022-12-10T01:26:52;96696.91;;;1.97;100.00
15489;BME280;7846;48.830;9.116;2022-12-10T01:29:17;96704.22;;;1.91;100.00
15489;BME280;7846;48.830;9.116;2022-12-10T01:31:44;96702.91;;;1.97;100.00
15489;BME280;7846;48.830;9.116;2022-12-10T01:34:12;96704.94;;;1.93;100.00
15489;BME280;7846;48.830;9.116;2022-12-10T01:36:41;96706.63;;;2.14;100.00
15489;BME280;7846;48.830;9.116;2022-12-10T01:39:09;96714.31;;;1.85;100.00
15489;BME280;7846;48.830;9.116;2022-12-10T01:41:41;96713.28;;;2.07;100.00
15489;BME280;7846;48.830;9.116;2022-12-10T01:46:38;96722.25;;;2.33;98.92
15489;BME280;7846;48.830;9.116;2022-12-10T01:49:07;96718.94;;;2.22;98.08
15489;BME280;7846;48.830;9.116;2022-12-10T01:51:35;96717.25;;;2.01;99.19
15489;BME280;7846;48.830;9.116;2022-12-10T01:54:03;96712.16;;;1.90;98.33
15489;BME280;7846;48.830;9.116;2022-12-10T01:56:31;96717.91;;;1.93;99.58
15489;BME280;7846;48.830;9.116;2022-12-10T01:58:57;96712.47;;;2.06;98.79
15489;BME280;7846;48.830;9.116;2022-12-10T02:04:01;96710.63;;;2.28;98.28
15489;BME280;7846;48.830;9.116;2022-12-10T02:09:28;96717.91;;;2.34;96.84
15489;BME280;7846;48.830;9.116;2022-12-10T02:12:28;96716.72;;;2.07;97.63
15489;BME280;7846;48.830;9.116;2022-12-10T02:15:07;96713.78;;;2.31;97.59
15489;BME280;7846;48.830;9.116;2022-12-10T02:17:45;96712.03;;;2.51;96.01
15489;BME280;7846;48.830;9.116;2022-12-10T02:20:22;96711.59;;;2.27;95.80
15489;BME280;7846;48.830;9.116;2022-12-10T02:23:02;96714.66;;;2.01;96.71
15489;BME280;7846;48.830;9.116;2022-12-10T02:25:45;96708.41;;;2.13;97.55
15489;BME280;7846;48.830;9.116;2022-12-10T02:28:28;96703.38;;;2.22;97.32
15489;BME280;7846;48.830;9.116;2022-12-10T02:30:59;96702.72;;;2.39;96.29
15489;BME280;7846;48.830;9.116;2022-12-10T02:33:27;96712.16;;;2.40;95.73
15489;BME280;7846;48.830;9.116;2022-12-10T02:35:56;96705.16;;;2.21;96.51
15489;BME280;7846;48.830;9.116;2022-12-10T02:38:26;96704.50;;;2.38;96.01
15489;BME280;7846;48.830;9.116;2022-12-10T02:40:58;96694.78;;;2.31;96.16
15489;BME280;7846;48.830;9.116;2022-12-10T02:43:26;96698.16;;;2.12;97.99
15489;BME280;7846;48.830;9.116;2022-12-10T02:45:53;96694.88;;;2.10;98.14
15489;BME280;7846;48.830;9.116;2022-12-10T02:48:19;96686.31;;;1.79;99.72
15489;BME280;7846;48.830;9.116;2022-12-10T02:50:46;96684.75;;;1.97;100.00
15489;BME280;7846;48.830;9.116;2022-12-10T02:53:12;96678.91;;;2.14;98.77
15489;BME280;7846;48.830;9.116;2022-12-10T02:56:05;96682.47;;;2.23;97.13
15489;BME280;7846;48.830;9.116;2022-12-10T03:01:51;96666.72;;;2.15;96.34
15489;BME280;7846;48.830;9.116;2022-12-10T03:04:33;96670.53;;;2.01;96.35
15489;BME280;7846;48.830;9.116;2022-12-10T03:07:09;96670.00;;;1.98;96.76
15489;BME280;7846;48.830;9.116;2022-12-10T03:10:07;96676.22;;;1.85;96.98
15489;BME280;7846;48.830;9.116;2022-12-10T03:12:40;96673.75;;;1.84;97.14
15489;BME280;7846;48.830;9.116;2022-12-10T03:15:09;96675.94;;;1.79;96.47
15489;BME280;7846;48.830;9.116;2022-12-10T03:17:36;96679.47;;;1.78;96.97
15489;BME280;7846;48.830;9.116;2022-12-10T03:20:03;96686.56;;;1.76;96.69
15489;BME280;7846;48.830;9.116;2022-12-10T03:22:31;96688.91;;;1.79;97.33
15489;BME280;7846;48.830;9.116;2022-12-10T03:24:58;96689.06;;;1.87;97.20
15489;BME280;7846;48.830;9.116;2022-12-10T03:27:24;96689.69;;;1.69;98.70
15489;BME280;7846;48.830;9.116;2022-12-10T03:29:52;96683.03;;;1.46;100.00
15489;BME280;7846;48.830;9.116;2022-12-10T03:32:21;96670.81;;;1.37;100.00
15489;BME280;7846;48.830;9.116;2022-12-10T03:34:49;96658.00;;;1.35;100.00
15489;BME280;7846;48.830;9.116;2022-12-10T03:37:16;96653.13;;;1.42;100.00
15489;BME280;7846;48.830;9.116;2022-12-10T03:39:42;96656.72;;;1.51;100.00
15489;BME280;7846;48.830;9.116;2022-12-10T03:42:08;96663.31;;;1.64;100.00
15489;BME280;7846;48.830;9.116;2022-12-10T03:44:36;96661.94;;;1.60;100.00
15489;BME280;7846;48.830;9.116;2022-12-10T03:47:03;96664.06;;;1.45;100.00
15489;BME280;7846;48.830;9.116;2022-12-10T03:49:29;96669.56;;;1.52;100.00
15489;BME280;7846;48.830;9.116;2022-12-10T03:51:56;96680.19;;;1.49;100.00
15489;BME280;7846;48.830;9.116;2022-12-10T03:54:22;96681.91;;;1.39;100.00
15489;BME280;7846;48.830;9.116;2022-12-10T03:56:48;96688.16;;;1.36;100.00
15489;BME280;7846;48.830;9.116;2022-12-10T03:59:14;96698.16;;;1.41;100.00
15489;BME280;7846;48.830;9.116;2022-12-10T04:01:40;96708.22;;;1.34;100.00
15489;BME280;7846;48.830;9.116;2022-12-10T04:04:06;96702.50;;;1.40;100.00
15489;BME280;7846;48.830;9.116;2022-12-10T04:06:31;96711.47;;;1.36;100.00
15489;BME280;7846;48.830;9.116;2022-12-10T04:08:57;96708.31;;;1.33;100.00
15489;BME280;7846;48.830;9.116;2022-12-10T04:11:23;96702.78;;;1.37;100.00
15489;BME280;7846;48.830;9.116;2022-12-10T04:13:49;96709.03;;;1.35;100.00
15489;BME280;7846;48.830;9.116;2022-12-10T04:16:33;96713.06;;;1.28;100.00
15489;BME280;7846;48.830;9.116;2022-12-10T04:19:08;96706.38;;;1.46;100.00
15489;BME280;7846;48.830;9.116;2022-12-10T04:21:35;96710.47;;;1.28;100.00
15489;BME280;7846;48.830;9.116;2022-12-10T04:24:23;96708.28;;;1.23;100.00
15489;BME280;7846;48.830;9.116;2022-12-10T04:27:20;96714.06;;;1.36;100.00
15489;BME280;7846;48.830;9.116;2022-12-10T04:29:45;96710.47;;;1.49;100.00
15489;BME280;7846;48.830;9.116;2022-12-10T04:32:11;96709.13;;;1.54;100.00
15489;BME280;7846;48.830;9.116;2022-12-10T04:34:36;96711.88;;;1.53;100.00
15489;BME280;7846;48.830;9.116;2022-12-10T04:37:03;96730.13;;;1.51;100.00
15489;BME280;7846;48.830;9.116;2022-12-10T04:39:30;96725.06;;;1.50;100.00
15489;BME280;7846;48.830;9.116;2022-12-10T04:41:56;96726.03;;;1.49;100.00
15489;BME280;7846;48.830;9.116;2022-12-10T04:44:21;96725.25;;;1.58;100.00
15489;BME280;7846;48.830;9.116;2022-12-10T04:46:49;96716.22;;;1.52;100.00
15489;BME280;7846;48.830;9.116;2022-12-10T04:49:15;96727.59;;;1.40;100.00
15489;BME280;7846;48.830;9.116;2022-12-10T04:51:40;96724.75;;;1.43;100.00
15489;BME280;7846;48.830;9.116;2022-12-10T04:54:06;96726.22;;;1.36;100.00
15489;BME280;7846;48.830;9.116;2022-12-10T04:56:36;96735.44;;;1.29;100.00
15489;BME280;7846;48.830;9.116;2022-12-10T04:59:03;96730.00;;;1.32;100.00
15489;BME280;7846;48.830;9.116;2022-12-10T05:01:28;96735.91;;;1.34;100.00
15489;BME280;7846;48.830;9.116;2022-12-10T05:03:54;96724.34;;;1.38;100.00
15489;BME280;7846;48.830;9.116;2022-12-10T05:06:20;96722.56;;;1.38;100.00
15489;BME280;7846;48.830;9.116;2022-12-10T05:08:47;96727.09;;;1.25;100.00
15489;BME280;7846;48.830;9.116;2022-12-10T05:11:15;96715.25;;;1.23;100.00
15489;BME280;7846;48.830;9.116;2022-12-10T05:13:41;96724.31;;;1.17;100.00
15489;BME280;7846;48.830;9.116;2022-12-10T05:16:10;96729.00;;;1.02;100.00
15489;BME280;7846;48.830;9.116;2022-12-10T05:18:36;96732.91;;;0.96;100.00
15489;BME280;7846;48.830;9.116;2022-12-10T05:21:04;96726.78;;;1.18;100.00
15489;BME280;7846;48.830;9.116;2022-12-10T05:23:30;96724.34;;;1.38;100.00
15489;BME280;7846;48.830;9.116;2022-12-10T05:26:12;96723.25;;;1.19;100.00
15489;BME280;7846;48.830;9.116;2022-12-10T05:28:43;96730.22;;;1.19;100.00
15489;BME280;7846;48.830;9.116;2022-12-10T05:31:15;96725.97;;;1.18;100.00
15489;BME280;7846;48.830;9.116;2022-12-10T05:33:41;96734.94;;;0.93;100.00
15489;BME280;7846;48.830;9.116;2022-12-10T05:36:07;96726.16;;;1.05;100.00
15489;BME280;7846;48.830;9.116;2022-12-10T05:38:34;96731.72;;;1.01;100.00
15489;BME280;7846;48.830;9.116;2022-12-10T05:41:11;96738.09;;;1.17;100.00
15489;BME280;7846;48.830;9.116;2022-12-10T05:43:36;96735.56;;;1.06;100.00
15489;BME280;7846;48.830;9.116;2022-12-10T05:46:09;96743.09;;;1.09;100.00
15489;BME280;7846;48.830;9.116;2022-12-10T05:48:36;96744.66;;;1.01;100.00
15489;BME280;7846;48.830;9.116;2022-12-10T05:51:11;96738.34;;;1.14;100.00
15489;BME280;7846;48.830;9.116;2022-12-10T05:53:37;96730.97;;;1.10;100.00
15489;BME280;7846;48.830;9.116;2022-12-10T05:56:07;96744.00;;;0.87;100.00
15489;BME280;7846;48.830;9.116;2022-12-10T05:58:33;96739.53;;;0.89;100.00
15489;BME280;7846;48.830;9.116;2022-12-10T06:00:59;96739.84;;;0.96;100.00
15489;BME280;7846;48.830;9.116;2022-12-10T06:03:27;96740.59;;;1.19;100.00
15489;BME280;7846;48.830;9.116;2022-12-10T06:05:52;96750.97;;;0.87;100.00
15489;BME280;7846;48.830;9.116;2022-12-10T06:08:18;96754.38;;;0.87;100.00
15489;BME280;7846;48.830;9.116;2022-12-10T06:10:43;96757.72;;;0.99;100.00
15489;BME280;7846;48.830;9.116;2022-12-10T06:13:09;96761.13;;;1.00;100.00
15489;BME280;7846;48.830;9.116;2022-12-10T06:15:38;96770.63;;;0.89;100.00
15489;BME280;7846;48.830;9.116;2022-12-10T06:18:05;96770.69;;;0.99;100.00
15489;BME280;7846;48.830;9.116;2022-12-10T06:20:31;96773.56;;;0.85;100.00
15489;BME280;7846;48.830;9.116;2022-12-10T06:22:57;96773.03;;;1.02;100.00
15489;BME280;7846;48.830;9.116;2022-12-10T06:25:22;96770.44;;;1.02;100.00
15489;BME280;7846;48.830;9.116;2022-12-10T06:27:48;96766.91;;;1.03;100.00
15489;BME280;7846;48.830;9.116;2022-12-10T06:30:14;96775.09;;;1.19;100.00
15489;BME280;7846;48.830;9.116;2022-12-10T06:32:41;96767.75;;;1.25;100.00
15489;BME280;7846;48.830;9.116;2022-12-10T06:35:09;96775.28;;;1.28;100.00
15489;BME280;7846;48.830;9.116;2022-12-10T06:37:34;96775.16;;;1.50;100.00
15489;BME280;7846;48.830;9.116;2022-12-10T06:40:00;96779.31;;;1.62;100.00
15489;BME280;7846;48.830;9.116;2022-12-10T06:42:26;96781.66;;;1.65;100.00
15489;BME280;7846;48.830;9.116;2022-12-10T06:44:51;96787.22;;;1.61;100.00
15489;BME280;7846;48.830;9.116;2022-12-10T06:47:17;96785.88;;;1.66;100.00
15489;BME280;7846;48.830;9.116;2022-12-10T06:49:43;96792.53;;;1.38;100.00
15489;BME280;7846;48.830;9.116;2022-12-10T06:52:09;96795.81;;;1.40;100.00
15489;BME280;7846;48.830;9.116;2022-12-10T06:54:34;96798.13;;;1.34;100.00
15489;BME280;7846;48.830;9.116;2022-12-10T06:56:59;96800.53;;;1.67;100.00
15489;BME280;7846;48.830;9.116;2022-12-10T06:59:26;96800.91;;;1.42;100.00
15489;BME280;7846;48.830;9.116;2022-12-10T07:01:52;96797.78;;;1.48;100.00
15489;BME280;7846;48.830;9.116;2022-12-10T07:04:18;96800.06;;;1.41;100.00
15489;BME280;7846;48.830;9.116;2022-12-10T07:06:43;96805.69;;;1.47;100.00
15489;BME280;7846;48.830;9.116;2022-12-10T07:09:09;96791.59;;;1.39;100.00
15489;BME280;7846;48.830;9.116;2022-12-10T07:11:37;96802.34;;;1.35;100.00
15489;BME280;7846;48.830;9.116;2022-12-10T07:14:03;96795.50;;;1.55;100.00
15489;BME280;7846;48.830;9.116;2022-12-10T07:16:30;96789.34;;;1.67;100.00
15489;BME280;7846;48.830;9.116;2022-12-10T07:18:59;96795.13;;;1.59;100.00
15489;BME280;7846;48.830;9.116;2022-12-10T07:21:28;96804.81;;;1.57;100.00
15489;BME280;7846;48.830;9.116;2022-12-10T07:23:55;96801.72;;;1.63;99.42
15489;BME280;7846;48.830;9.116;2022-12-10T07:26:24;96811.81;;;1.66;99.92
15489;BME280;7846;48.830;9.116;2022-12-10T07:28:50;96811.31;;;1.52;99.45
15489;BME280;7846;48.830;9.116;2022-12-10T07:31:15;96816.97;;;1.57;100.00
15489;BME280;7846;48.830;9.116;2022-12-10T07:33:41;96823.47;;;1.51;99.64
15489;BME280;7846;48.830;9.116;2022-12-10T07:36:10;96813.41;;;1.58;100.00
15489;BME280;7846;48.830;9.116;2022-12-10T07:38:36;96830.31;;;1.52;99.95
15489;BME280;7846;48.830;9.116;2022-12-10T07:41:03;96828.91;;;1.48;100.00
15489;BME280;7846;48.830;9.116;2022-12-10T07:43:30;96835.38;;;1.54;100.00
15489;BME280;7846;48.830;9.116;2022-12-10T07:46:06;96830.03;;;1.55;100.00
15489;BME280;7846;48.830;9.116;2022-12-10T07:48:33;96836.00;;;1.46;100.00
15489;BME280;7846;48.830;9.116;2022-12-10T07:50:59;96846.94;;;1.50;100.00
15489;BME280;7846;48.830;9.116;2022-12-10T07:53:27;96846.84;;;1.40;100.00
15489;BME280;7846;48.830;9.116;2022-12-10T07:55:53;96843.03;;;1.23;100.00
15489;BME280;7846;48.830;9.116;2022-12-10T07:58:19;96848.00;;;1.15;100.00
15489;BME280;7846;48.830;9.116;2022-12-10T08:00:44;96845.25;;;1.28;100.00
15489;BME280;7846;48.830;9.116;2022-12-10T08:03:10;96854.19;;;1.35;100.00
15489;BME280;7846;48.830;9.116;2022-12-10T08:05:35;96855.00;;;1.35;100.00
15489;BME280;7846;48.830;9.116;2022-12-10T08:08:02;96853.56;;;1.42;100.00
15489;BME280;7846;48.830;9.116;2022-12-10T08:10:27;96860.47;;;1.53;100.00
15489;BME280;7846;48.830;9.116;2022-12-10T08:12:54;96857.00;;;1.64;100.00
15489;BME280;7846;48.830;9.116;2022-12-10T08:15:19;96859.28;;;1.57;100.00
15489;BME280;7846;48.830;9.116;2022-12-10T08:17:46;96857.00;;;1.64;100.00
15489;BME280;7846;48.830;9.116;2022-12-10T08:20:12;96858.31;;;1.58;100.00
15489;BME280;7846;48.830;9.116;2022-12-10T08:22:38;96857.59;;;1.67;99.78
15489;BME280;7846;48.830;9.116;2022-12-10T08:25:04;96861.75;;;1.80;99.30
15489;BME280;7846;48.830;9.116;2022-12-10T08:27:30;96857.53;;;1.79;98.49
15489;BME280;7846;48.830;9.116;2022-12-10T08:29:58;96856.06;;;1.86;98.58
15489;BME280;7846;48.830;9.116;2022-12-10T08:32:23;96859.66;;;1.74;98.08
15489;BME280;7846;48.830;9.116;2022-12-10T08:34:53;96867.69;;;1.50;99.69
15489;BME280;7846;48.830;9.116;2022-12-10T08:37:18;96853.84;;;1.60;99.73
15489;BME280;7846;48.830;9.116;2022-12-10T08:39:46;96857.84;;;1.32;100.00
15489;BME280;7846;48.830;9.116;2022-12-10T08:42:11;96855.44;;;1.19;100.00
15489;BME280;7846;48.830;9.116;2022-12-10T08:44:37;96850.72;;;1.45;100.00
15489;BME280;7846;48.830;9.116;2022-12-10T08:47:02;96853.84;;;1.28;100.00
15489;BME280;7846;48.830;9.116;2022-12-10T08:49:28;96859.19;;;1.48;100.00
15489;BME280;7846;48.830;9.116;2022-12-10T08:51:54;96858.56;;;1.55;100.00
15489;BME280;7846;48.830;9.116;2022-12-10T08:54:19;96859.16;;;1.80;100.00
15489;BME280;7846;48.830;9.116;2022-12-10T08:56:45;96869.53;;;1.80;98.58
15489;BME280;7846;48.830;9.116;2022-12-10T08:59:11;96873.44;;;1.95;96.34
15489;BME280;7846;48.830;9.116;2022-12-10T09:01:37;96881.56;;;2.32;94.95
15489;BME280;7846;48.830;9.116;2022-12-10T09:04:07;96891.69;;;1.84;94.53
15489;BME280;7846;48.830;9.116;2022-12-10T09:06:33;96890.09;;;1.72;96.58
15489;BME280;7846;48.830;9.116;2022-12-10T09:08:58;96886.84;;;2.00;96.90
15489;BME280;7846;48.830;9.116;2022-12-10T09:11:30;96891.44;;;1.87;95.37
15489;BME280;7846;48.830;9.116;2022-12-10T09:13:56;96893.41;;;1.62;95.96
15489;BME280;7846;48.830;9.116;2022-12-10T09:16:27;96882.19;;;1.52;97.07
15489;BME280;7846;48.830;9.116;2022-12-10T09:18:53;96893.03;;;1.46;97.20
15489;BME280;7846;48.830;9.116;2022-12-10T09:21:19;96893.50;;;1.72;98.70
15489;BME280;7846;48.830;9.116;2022-12-10T09:23:45;96894.13;;;1.85;97.08
15489;BME280;7846;48.830;9.116;2022-12-10T09:26:13;96900.72;;;2.31;95.31
15489;BME280;7846;48.830;9.116;2022-12-10T09:28:40;96901.50;;;2.53;93.68
15489;BME280;7846;48.830;9.116;2022-12-10T09:31:07;96914.69;;;2.40;92.56
15489;BME280;7846;48.830;9.116;2022-12-10T09:33:33;96913.50;;;2.75;91.40
15489;BME280;7846;48.830;9.116;2022-12-10T09:36:02;96914.34;;;2.54;91.10
15489;BME280;7846;48.830;9.116;2022-12-10T09:38:28;96924.50;;;2.57;89.69
15489;BME280;7846;48.830;9.116;2022-12-10T09:41:15;96920.41;;;2.64;90.41
15489;BME280;7846;48.830;9.116;2022-12-10T09:43:50;96915.22;;;1.92;91.83
15489;BME280;7846;48.830;9.116;2022-12-10T09:46:38;96915.69;;;1.97;93.75
15489;BME280;7846;48.830;9.116;2022-12-10T09:51:50;96910.84;;;1.92;93.77
15489;BME280;7846;48.830;9.116;2022-12-10T09:54:24;96908.81;;;2.38;92.93
15489;BME280;7846;48.830;9.116;2022-12-10T09:56:54;96907.03;;;2.38;91.04
15489;BME280;7846;48.830;9.116;2022-12-10T09:59:29;96911.00;;;2.12;91.85
15489;BME280;7846;48.830;9.116;2022-12-10T10:04:49;96911.13;;;2.41;91.75
15489;BME280;7846;48.830;9.116;2022-12-10T10:07:21;96913.13;;;2.58;90.40
15489;BME280;7846;48.830;9.116;2022-12-10T10:09:50;96912.53;;;2.45;89.97
15489;BME280;7846;48.830;9.116;2022-12-10T10:12:16;96909.72;;;2.27;90.74
15489;BME280;7846;48.830;9.116;2022-12-10T10:14:45;96908.81;;;2.17;91.13
15489;BME280;7846;48.830;9.116;2022-12-10T10:17:27;96909.81;;;2.47;91.04
15489;BME280;7846;48.830;9.116;2022-12-10T10:19:54;96916.03;;;2.34;91.16
15489;BME280;7846;48.830;9.116;2022-12-10T10:22:20;96905.81;;;2.42;91.00
15489;BME280;7846;48.830;9.116;2022-12-10T10:24:46;96905.75;;;2.33;90.70
15489;BME280;7846;48.830;9.116;2022-12-10T10:27:21;96904.44;;;2.17;91.66
15489;BME280;7846;48.830;9.116;2022-12-10T10:29:50;96905.28;;;2.18;91.62
15489;BME280;7846;48.830;9.116;2022-12-10T10:32:25;96906.81;;;2.21;91.49
15489;BME280;7846;48.830;9.116;2022-12-10T10:34:56;96906.22;;;2.69;90.18
15489;BME280;7846;48.830;9.116;2022-12-10T10:40:01;96907.50;;;2.23;89.79
15489;BME280;7846;48.830;9.116;2022-12-10T10:42:42;96905.03;;;2.00;89.98
15489;BME280;7846;48.830;9.116;2022-12-10T10:45:32;96909.97;;;2.03;89.36
15489;BME280;7846;48.830;9.116;2022-12-10T10:48:08;96913.31;;;1.94;89.96
15489;BME280;7846;48.830;9.116;2022-12-10T10:50:43;96903.22;;;2.12;89.26
15489;BME280;7846;48.830;9.116;2022-12-10T10:53:31;96904.34;;;2.19;90.34
15489;BME280;7846;48.830;9.116;2022-12-10T10:56:19;96909.47;;;2.30;89.23
15489;BME280;7846;48.830;9.116;2022-12-10T11:01:20;96905.44;;;2.47;88.73
15489;BME280;7846;48.830;9.116;2022-12-10T11:03:48;96915.78;;;2.16;87.92
15489;BME280;7846;48.830;9.116;2022-12-10T11:06:15;96919.13;;;2.49;87.05
15489;BME280;7846;48.830;9.116;2022-12-10T11:08:43;96918.72;;;2.54;86.04
15489;BME280;7846;48.830;9.116;2022-12-10T11:11:19;96921.78;;;2.38;86.20
15489;BME280;7846;48.830;9.116;2022-12-10T11:13:46;96922.13;;;2.54;85.97
15489;BME280;7846;48.830;9.116;2022-12-10T11:18:51;96923.34;;;2.20;85.39
15489;BME280;7846;48.830;9.116;2022-12-10T11:21:19;96930.25;;;2.40;85.15
15489;BME280;7846;48.830;9.116;2022-12-10T11:23:51;96935.72;;;2.37;84.25
15489;BME280;7846;48.830;9.116;2022-12-10T11:32:24;96925.38;;;2.47;84.10
15489;BME280;7846;48.830;9.116;2022-12-10T11:35:10;96931.22;;;2.70;83.99
15489;BME280;7846;48.830;9.116;2022-12-10T11:37:53;96932.44;;;2.65;82.28
15489;BME280;7846;48.830;9.116;2022-12-10T11:49:09;96926.44;;;3.05;83.17
15489;BME280;7846;48.830;9.116;2022-12-10T11:52:06;96926.72;;;3.02;85.28
15489;BME280;7846;48.830;9.116;2022-12-10T11:57:46;96926.25;;;2.87;86.34
15489;BME280;7846;48.830;9.116;2022-12-10T12:00:22;96920.66;;;2.92;85.68
15489;BME280;7846;48.830;9.116;2022-12-10T12:05:52;96931.34;;;2.99;84.50
15489;BME280;7846;48.830;9.116;2022-12-10T12:11:08;96921.53;;;3.12;82.18
15489;BME280;7846;48.830;9.116;2022-12-10T12:13:48;96923.69;;;2.66;83.63
15489;BME280;7846;48.830;9.116;2022-12-10T12:16:24;96925.72;;;2.94;82.77
15489;BME280;7846;48.830;9.116;2022-12-10T12:19:12;96917.13;;;2.93;82.33
15489;BME280;7846;48.830;9.116;2022-12-10T12:21:40;96930.25;;;3.01;85.16
15489;BME280;7846;48.830;9.116;2022-12-10T12:24:16;96925.53;;;3.26;86.16
15489;BME280;7846;48.830;9.116;2022-12-10T12:26:54;96936.22;;;3.23;86.45
15489;BME280;7846;48.830;9.116;2022-12-10T12:29:28;96938.53;;;3.26;85.71
15489;BME280;7846;48.830;9.116;2022-12-10T12:32:02;96936.28;;;3.11;85.88
15489;BME280;7846;48.830;9.116;2022-12-10T12:34:39;96943.88;;;3.24;84.77
15489;BME280;7846;48.830;9.116;2022-12-10T12:37:12;96943.09;;;3.43;84.04
15489;BME280;7846;48.830;9.116;2022-12-10T12:39:47;96943.69;;;3.06;84.74
15489;BME280;7846;48.830;9.116;2022-12-10T12:42:23;96950.34;;;2.99;87.28
15489;BME280;7846;48.830;9.116;2022-12-10T12:44:58;96943.00;;;3.04;87.35
15489;BME280;7846;48.830;9.116;2022-12-10T12:47:46;96957.44;;;2.87;87.99
15489;BME280;7846;48.830;9.116;2022-12-10T12:50:44;96950.16;;;2.81;88.50
15489;BME280;7846;48.830;9.116;2022-12-10T12:53:15;96955.00;;;2.65;88.83
15489;BME280;7846;48.830;9.116;2022-12-10T12:55:55;96960.34;;;2.42;90.06
15489;BME280;7846;48.830;9.116;2022-12-10T12:58:39;96964.59;;;2.74;89.57
15489;BME280;7846;48.830;9.116;2022-12-10T13:04:04;96969.69;;;2.76;88.57
15489;BME280;7846;48.830;9.116;2022-12-10T13:06:33;96972.28;;;2.76;88.15
15489;BME280;7846;48.830;9.116;2022-12-10T13:14:35;96979.91;;;2.67;89.77
15489;BME280;7846;48.830;9.116;2022-12-10T13:17:32;96989.91;;;2.51;90.36
15489;BME280;7846;48.830;9.116;2022-12-10T13:22:58;96985.63;;;2.61;89.51
15489;BME280;7846;48.830;9.116;2022-12-10T13:25:39;96980.13;;;2.34;90.39
15489;BME280;7846;48.830;9.116;2022-12-10T13:42:20;97003.91;;;2.18;92.48
15489;BME280;7846;48.830;9.116;2022-12-10T13:44:48;97019.38;;;2.20;92.35
15489;BME280;7846;48.830;9.116;2022-12-10T13:49:59;97015.38;;;2.15;90.91
15489;BME280;7846;48.830;9.116;2022-12-10T13:52:30;97016.53;;;2.23;90.54
15489;BME280;7846;48.830;9.116;2022-12-10T13:55:17;97028.75;;;2.32;90.53
15489;BME280;7846;48.830;9.116;2022-12-10T13:58:17;97027.75;;;2.23;90.97
15489;BME280;7846;48.830;9.116;2022-12-10T14:06:21;97049.47;;;2.11;91.01
15489;BME280;7846;48.830;9.116;2022-12-10T14:08:57;97045.03;;;2.02;91.32
15489;BME280;7846;48.830;9.116;2022-12-10T14:11:31;97055.25;;;2.14;91.40
15489;BME280;7846;48.830;9.116;2022-12-10T14:14:00;97052.78;;;2.13;91.21
15489;BME280;7846;48.830;9.116;2022-12-10T14:16:28;97053.38;;;2.16;90.16
15489;BME280;7846;48.830;9.116;2022-12-10T14:19:03;97042.28;;;2.14;90.22
15489;BME280;7846;48.830;9.116;2022-12-10T14:21:34;97052.66;;;2.14;90.00
15489;BME280;7846;48.830;9.116;2022-12-10T14:24:00;97057.59;;;2.17;89.92
15489;BME280;7846;48.830;9.116;2022-12-10T14:26:29;97056.94;;;2.36;90.06
15489;BME280;7846;48.830;9.116;2022-12-10T14:29:16;97058.59;;;2.05;90.17
15489;BME280;7846;48.830;9.116;2022-12-10T14:31:48;97062.00;;;2.06;90.42
15489;BME280;7846;48.830;9.116;2022-12-10T14:34:17;97068.31;;;1.81;90.91
15489;BME280;7846;48.830;9.116;2022-12-10T14:36:46;97071.28;;;1.87;91.04
15489;BME280;7846;48.830;9.116;2022-12-10T14:39:14;97069.84;;;1.94;90.83
15489;BME280;7846;48.830;9.116;2022-12-10T14:41:40;97067.50;;;1.80;91.53
15489;BME280;7846;48.830;9.116;2022-12-10T14:44:06;97070.94;;;1.69;91.93
15489;BME280;7846;48.830;9.116;2022-12-10T14:46:34;97075.91;;;1.73;92.44
15489;BME280;7846;48.830;9.116;2022-12-10T14:49:07;97077.88;;;1.80;93.24
15489;BME280;7846;48.830;9.116;2022-12-10T14:51:37;97084.88;;;1.68;93.67
15489;BME280;7846;48.830;9.116;2022-12-10T14:54:02;97088.50;;;1.66;93.17